createdAt,value
2017-07-24T00:00:18.647Z,37.91
2017-07-24T00:01:18.672Z,38.1
2017-07-24T00:02:18.704Z,37.93
2017-07-24T00:03:18.724Z,37.91
2017-07-24T00:04:18.750Z,37.81
2017-07-24T00:05:18.459Z,37.52
2017-07-24T00:06:18.799Z,38.1
2017-07-24T00:07:18.823Z,38.1
2017-07-24T00:08:18.849Z,38.29
2017-07-24T00:09:18.879Z,38.29
2017-07-24T00:10:18.904Z,38.58
2017-07-24T00:11:18.926Z,38.39
2017-07-24T00:12:18.954Z,38.49
2017-07-24T00:13:18.661Z,38.49
2017-07-24T00:14:19.004Z,38.58
2017-07-24T00:15:19.043Z,38.39
2017-07-24T00:16:18.740Z,38.49
2017-07-24T00:17:19.075Z,38.01
2017-07-24T00:18:19.105Z,38.1
2017-07-24T00:19:19.124Z,38.49
2017-07-24T00:20:19.156Z,38.78
2017-07-24T00:21:19.177Z,38.87
2017-07-24T00:22:19.200Z,38.78
2017-07-24T00:23:19.227Z,38.78
2017-07-24T00:24:19.256Z,38.68
2017-07-24T00:25:19.276Z,38.68
2017-07-24T00:26:19.303Z,38.58
2017-07-24T00:27:19.328Z,38.78
2017-07-24T00:28:19.354Z,38.87
2017-07-24T00:29:19.382Z,38.76
2017-07-24T00:30:19.402Z,38.95
2017-07-24T00:31:19.438Z,38.85
2017-07-24T00:32:19.458Z,39.14
2017-07-24T00:33:19.163Z,39.14
2017-07-24T00:34:19.553Z,39.24
2017-07-24T00:35:19.531Z,39.14
2017-07-24T00:36:19.554Z,39.34
2017-07-24T00:37:19.591Z,39.34
2017-07-24T00:38:19.604Z,39.34
2017-07-24T00:39:19.314Z,39.62
2017-07-24T00:40:19.344Z,39.62
2017-07-24T00:41:19.362Z,39.43
2017-07-24T00:42:19.706Z,39.53
2017-07-24T00:43:19.733Z,39.62
2017-07-24T00:44:19.760Z,39.82
2017-07-24T00:45:19.467Z,39.62
2017-07-24T00:46:19.804Z,39.61
2017-07-24T00:47:19.833Z,39.82
2017-07-24T00:48:19.853Z,39.82
2017-07-24T00:49:19.877Z,39.91
2017-07-24T00:50:19.903Z,40.09
2017-07-24T00:51:19.928Z,40.01
2017-07-24T00:52:19.955Z,39.89
2017-07-24T00:53:19.974Z,40.09
2017-07-24T00:54:20.014Z,40.66
2017-07-24T00:55:20.026Z,40.19
2017-07-24T00:56:20.050Z,40.47
2017-07-24T00:57:20.081Z,40.09
2017-07-24T00:58:20.100Z,40.66
2017-07-24T00:59:20.129Z,40.57
2017-07-24T01:00:20.149Z,40.47
2017-07-24T01:01:20.173Z,40.57
2017-07-24T01:02:19.884Z,40.57
2017-07-24T01:03:20.226Z,40.66
2017-07-24T01:04:20.251Z,40.76
2017-07-24T01:05:20.275Z,40.76
2017-07-24T01:06:20.300Z,40.95
2017-07-24T01:07:20.320Z,40.95
2017-07-24T01:08:20.352Z,41.05
2017-07-24T01:09:20.056Z,41.05
2017-07-24T01:10:20.396Z,41.14
2017-07-24T01:11:20.421Z,41.13
2017-07-24T01:12:20.449Z,40.86
2017-07-24T01:13:20.469Z,40.95
2017-07-24T01:14:20.497Z,40.95
2017-07-24T01:15:20.636Z,41.13
2017-07-24T01:16:20.230Z,41.14
2017-07-24T01:17:20.254Z,41.24
2017-07-24T01:18:20.658Z,41.13
2017-07-24T01:19:20.659Z,41.03
2017-07-24T01:20:20.332Z,41.22
2017-07-24T01:21:20.665Z,41.41
2017-07-24T01:22:20.799Z,41.13
2017-07-24T01:23:20.823Z,41.22
2017-07-24T01:24:20.822Z,41.22
2017-07-24T01:25:20.450Z,41.71
2017-07-24T01:26:20.909Z,41.71
2017-07-24T01:27:20.909Z,41.71
2017-07-24T01:28:21.070Z,41.71
2017-07-24T01:29:21.066Z,41.89
2017-07-24T01:30:21.070Z,41.89
2017-07-24T01:31:21.124Z,41.99
2017-07-24T01:32:21.072Z,42.09
2017-07-24T01:33:21.076Z,42.09
2017-07-24T01:34:21.082Z,42.28
2017-07-24T01:35:21.216Z,41.99
2017-07-24T01:36:21.213Z,42.19
2017-07-24T01:37:21.260Z,42.38
2017-07-24T01:38:21.228Z,42.38
2017-07-24T01:39:21.281Z,42.26
2017-07-24T01:40:21.296Z,42.47
2017-07-24T01:41:21.258Z,42.67
2017-07-24T01:42:21.333Z,42.38
2017-07-24T01:43:21.369Z,42.67
2017-07-24T01:44:21.031Z,42.57
2017-07-24T01:45:21.308Z,42.55
2017-07-24T01:46:21.292Z,42.55
2017-07-24T01:47:20.987Z,42.46
2017-07-24T01:48:21.327Z,42.46
2017-07-24T01:49:21.352Z,42.36
2017-07-24T01:50:21.055Z,42.26
2017-07-24T01:51:21.403Z,42.74
2017-07-24T01:52:21.422Z,42.84
2017-07-24T01:53:21.133Z,42.84
2017-07-24T01:54:21.156Z,42.74
2017-07-24T01:55:21.509Z,42.84
2017-07-24T01:56:21.449Z,42.65
2017-07-24T01:57:21.629Z,43.03
2017-07-24T01:58:21.773Z,42.93
2017-07-24T01:59:21.414Z,43.03
2017-07-24T02:00:21.800Z,43.23
2017-07-24T02:01:21.710Z,42.74
2017-07-24T02:02:21.842Z,43.23
2017-07-24T02:03:21.470Z,43.13
2017-07-24T02:04:21.716Z,43.41
2017-07-24T02:05:21.804Z,43.32
2017-07-24T02:06:21.974Z,43.13
2017-07-24T02:07:21.477Z,43.41
2017-07-24T02:08:22.036Z,43.51
2017-07-24T02:09:21.835Z,43.41
2017-07-24T02:10:21.855Z,43.59
2017-07-24T02:11:21.881Z,43.2
2017-07-24T02:12:22.099Z,43.11
2017-07-24T02:13:22.078Z,43.3
2017-07-24T02:14:21.952Z,43.3
2017-07-24T02:15:21.984Z,43.59
2017-07-24T02:16:22.002Z,43.4
2017-07-24T02:17:22.027Z,43.59
2017-07-24T02:18:22.049Z,43.49
2017-07-24T02:19:22.074Z,43.3
2017-07-24T02:20:22.098Z,44.07
2017-07-24T02:21:22.127Z,43.97
2017-07-24T02:22:22.148Z,43.78
2017-07-24T02:23:21.853Z,43.97
2017-07-24T02:24:22.187Z,43.68
2017-07-24T02:25:22.264Z,44.07
2017-07-24T02:26:22.244Z,44.17
2017-07-24T02:27:22.262Z,43.68
2017-07-24T02:28:22.287Z,43.59
2017-07-24T02:29:22.318Z,43.88
2017-07-24T02:30:22.335Z,43.78
2017-07-24T02:31:22.357Z,44.07
2017-07-24T02:32:22.415Z,43.88
2017-07-24T02:33:22.406Z,44.35
2017-07-24T02:34:22.427Z,44.17
2017-07-24T02:35:22.456Z,44.55
2017-07-24T02:36:22.562Z,44.45
2017-07-24T02:37:22.189Z,44.45
2017-07-24T02:38:22.529Z,44.45
2017-07-24T02:39:22.551Z,44.35
2017-07-24T02:40:22.572Z,44.45
2017-07-24T02:41:22.594Z,44.74
2017-07-24T02:42:22.621Z,44.55
2017-07-24T02:43:22.643Z,44.55
2017-07-24T02:44:22.666Z,44.65
2017-07-24T02:45:22.688Z,44.74
2017-07-24T02:46:22.712Z,44.74
2017-07-24T02:47:22.745Z,44.84
2017-07-24T02:48:22.770Z,44.72
2017-07-24T02:49:22.989Z,44.72
2017-07-24T02:50:22.808Z,44.82
2017-07-24T02:51:22.525Z,44.91
2017-07-24T02:52:22.854Z,44.82
2017-07-24T02:53:22.880Z,44.91
2017-07-24T02:54:22.903Z,44.93
2017-07-24T02:55:22.928Z,44.91
2017-07-24T02:56:22.948Z,44.91
2017-07-24T02:57:22.974Z,44.82
2017-07-24T02:58:22.683Z,44.82
2017-07-24T02:59:23.019Z,45.01
2017-07-24T03:00:23.048Z,45.1
2017-07-24T03:01:23.068Z,45.01
2017-07-24T03:02:23.093Z,45.2
2017-07-24T03:03:23.124Z,45.29
2017-07-24T03:04:23.137Z,45.29
2017-07-24T03:05:23.159Z,45.29
2017-07-24T03:06:23.193Z,45.49
2017-07-24T03:07:23.209Z,45.49
2017-07-24T03:08:23.234Z,45.59
2017-07-24T03:09:23.260Z,45.49
2017-07-24T03:10:23.283Z,45.59
2017-07-24T03:11:23.300Z,45.39
2017-07-24T03:12:23.330Z,45.49
2017-07-24T03:13:23.353Z,45.68
2017-07-24T03:14:23.371Z,45.59
2017-07-24T03:15:23.395Z,45.68
2017-07-24T03:16:23.422Z,45.78
2017-07-24T03:17:23.442Z,45.97
2017-07-24T03:18:23.472Z,45.97
2017-07-24T03:19:23.488Z,45.78
2017-07-24T03:20:23.512Z,45.97
2017-07-24T03:21:23.534Z,45.97
2017-07-24T03:22:23.244Z,45.78
2017-07-24T03:23:23.581Z,45.97
2017-07-24T03:24:23.619Z,46.06
2017-07-24T03:25:23.641Z,46.06
2017-07-24T03:26:23.653Z,45.97
2017-07-24T03:27:23.674Z,46.06
2017-07-24T03:28:23.700Z,45.97
2017-07-24T03:29:23.726Z,46.06
2017-07-24T03:30:23.435Z,46.06
2017-07-24T03:31:23.464Z,46.16
2017-07-24T03:32:23.795Z,46.26
2017-07-24T03:33:23.825Z,46.55
2017-07-24T03:34:23.837Z,46.43
2017-07-24T03:35:23.564Z,46.53
2017-07-24T03:36:23.574Z,46.53
2017-07-24T03:37:23.913Z,46.55
2017-07-24T03:38:23.930Z,46.53
2017-07-24T03:39:23.958Z,46.45
2017-07-24T03:40:23.982Z,46.62
2017-07-24T03:41:24.001Z,46.43
2017-07-24T03:42:24.024Z,46.53
2017-07-24T03:43:24.045Z,47.03
2017-07-24T03:44:24.070Z,46.62
2017-07-24T03:45:24.094Z,47
2017-07-24T03:46:24.157Z,46.43
2017-07-24T03:47:24.138Z,46.91
2017-07-24T03:48:24.163Z,46.81
2017-07-24T03:49:24.191Z,47
2017-07-24T03:50:24.208Z,46.81
2017-07-24T03:51:24.235Z,46.81
2017-07-24T03:52:24.255Z,46.72
2017-07-24T03:53:23.962Z,46.72
2017-07-24T03:54:24.310Z,46.81
2017-07-24T03:55:24.333Z,46.91
2017-07-24T03:56:24.036Z,46.81
2017-07-24T03:57:24.368Z,47
2017-07-24T03:58:24.400Z,47.1
2017-07-24T03:59:24.423Z,47.2
2017-07-24T04:00:24.445Z,47.1
2017-07-24T04:01:24.467Z,46.91
2017-07-24T04:02:24.488Z,47.1
2017-07-24T04:03:24.507Z,47.49
2017-07-24T04:04:24.533Z,47.2
2017-07-24T04:05:24.557Z,46.81
2017-07-24T04:06:24.734Z,47.49
2017-07-24T04:07:24.289Z,47.3
2017-07-24T04:08:24.627Z,47.2
2017-07-24T04:09:24.647Z,47.49
2017-07-24T04:10:24.855Z,47.39
2017-07-24T04:11:24.706Z,47.2
2017-07-24T04:12:24.408Z,47.49
2017-07-24T04:13:24.752Z,47.3
2017-07-24T04:14:24.762Z,47.2
2017-07-24T04:15:24.791Z,47.2
2017-07-24T04:16:24.813Z,47.68
2017-07-24T04:17:24.835Z,47.68
2017-07-24T04:18:24.855Z,47.3
2017-07-24T04:19:24.879Z,47.3
2017-07-24T04:20:24.900Z,47.58
2017-07-24T04:21:24.920Z,47.77
2017-07-24T04:22:24.949Z,47.77
2017-07-24T04:23:24.976Z,47.87
2017-07-24T04:24:24.993Z,47.58
2017-07-24T04:25:25.021Z,47.68
2017-07-24T04:26:25.044Z,47.58
2017-07-24T04:27:25.062Z,47.58
2017-07-24T04:28:25.090Z,47.2
2017-07-24T04:29:25.121Z,47.49
2017-07-24T04:30:25.130Z,47.2
2017-07-24T04:31:25.153Z,47.77
2017-07-24T04:32:25.183Z,47.87
2017-07-24T04:33:25.200Z,47.87
2017-07-24T04:34:25.222Z,48.07
2017-07-24T04:35:25.250Z,47.77
2017-07-24T04:36:25.270Z,47.68
2017-07-24T04:37:25.295Z,47.77
2017-07-24T04:38:25.001Z,47.77
2017-07-24T04:39:25.348Z,47.87
2017-07-24T04:40:25.358Z,47.97
2017-07-24T04:41:25.385Z,47.87
2017-07-24T04:42:25.091Z,47.97
2017-07-24T04:43:25.449Z,47.87
2017-07-24T04:44:25.455Z,47.77
2017-07-24T04:45:25.475Z,47.77
2017-07-24T04:46:25.498Z,48.35
2017-07-24T04:47:25.524Z,48.35
2017-07-24T04:48:25.545Z,47.87
2017-07-24T04:49:25.571Z,47.97
2017-07-24T04:50:25.592Z,47.77
2017-07-24T04:51:25.612Z,47.68
2017-07-24T04:52:25.323Z,47.58
2017-07-24T04:53:25.342Z,47.58
2017-07-24T04:54:25.678Z,47.68
2017-07-24T04:55:25.390Z,47.87
2017-07-24T04:56:25.725Z,48.35
2017-07-24T04:57:25.754Z,48.07
2017-07-24T04:58:25.772Z,47.97
2017-07-24T04:59:25.480Z,47.99
2017-07-24T05:00:25.825Z,47.99
2017-07-24T05:01:25.839Z,48.25
2017-07-24T05:02:25.865Z,47.99
2017-07-24T05:03:25.897Z,48.07
2017-07-24T05:04:25.594Z,48.08
2017-07-24T05:05:25.931Z,48.18
2017-07-24T05:06:25.960Z,48.28
2017-07-24T05:07:25.976Z,48.07
2017-07-24T05:08:26.007Z,48.38
2017-07-24T05:09:26.033Z,48.25
2017-07-24T05:10:26.048Z,48.28
2017-07-24T05:11:26.077Z,48.18
2017-07-24T05:12:26.092Z,48.38
2017-07-24T05:13:26.126Z,48.18
2017-07-24T05:14:26.146Z,48.18
2017-07-24T05:15:26.165Z,48.28
2017-07-24T05:16:26.185Z,48.18
2017-07-24T05:17:26.212Z,48.18
2017-07-24T05:18:25.916Z,47.89
2017-07-24T05:19:26.255Z,48.08
2017-07-24T05:20:26.276Z,48.38
2017-07-24T05:21:26.300Z,48.57
2017-07-24T05:22:26.326Z,48.66
2017-07-24T05:23:26.354Z,48.66
2017-07-24T05:24:26.368Z,48.57
2017-07-24T05:25:26.394Z,47.99
2017-07-24T05:26:26.423Z,48.18
2017-07-24T05:27:26.443Z,48.28
2017-07-24T05:28:26.465Z,48.28
2017-07-24T05:29:26.488Z,48.18
2017-07-24T05:30:26.505Z,48.28
2017-07-24T05:31:26.541Z,48.28
2017-07-24T05:32:26.560Z,48.28
2017-07-24T05:33:26.576Z,48.28
2017-07-24T05:34:26.600Z,48.38
2017-07-24T05:35:26.628Z,48.08
2017-07-24T05:36:26.644Z,48.47
2017-07-24T05:37:26.668Z,48.18
2017-07-24T05:38:26.693Z,48.18
2017-07-24T05:39:26.714Z,48.28
2017-07-24T05:40:26.737Z,48.28
2017-07-24T05:41:26.767Z,48.28
2017-07-24T05:42:26.784Z,48.18
2017-07-24T05:43:26.808Z,48.18
2017-07-24T05:44:26.830Z,48.4
2017-07-24T05:45:26.855Z,48.18
2017-07-24T05:46:26.874Z,48.4
2017-07-24T05:47:26.908Z,48.21
2017-07-24T05:48:26.612Z,47.89
2017-07-24T05:49:26.950Z,47.92
2017-07-24T05:50:26.971Z,48.02
2017-07-24T05:51:26.995Z,47.92
2017-07-24T05:52:27.023Z,48.02
2017-07-24T05:53:27.060Z,48.3
2017-07-24T05:54:27.062Z,48.4
2017-07-24T05:55:27.084Z,48.02
2017-07-24T05:56:27.110Z,48.11
2017-07-24T05:57:27.128Z,48.21
2017-07-24T05:58:26.861Z,48.3
2017-07-24T05:59:27.178Z,48.49
2017-07-24T06:00:27.201Z,48.3
2017-07-24T06:01:27.221Z,48.3
2017-07-24T06:02:26.931Z,48.3
2017-07-24T06:03:27.276Z,48.21
2017-07-24T06:04:27.293Z,48.02
2017-07-24T06:05:27.317Z,48.02
2017-07-24T06:06:27.021Z,48.11
2017-07-24T06:07:27.386Z,47.92
2017-07-24T06:08:27.395Z,48.3
2017-07-24T06:09:27.406Z,47.82
2017-07-24T06:10:27.429Z,47.63
2017-07-24T06:11:27.459Z,47.53
2017-07-24T06:12:27.573Z,47.82
2017-07-24T06:13:27.591Z,47.44
2017-07-24T06:14:27.631Z,47.85
2017-07-24T06:15:27.551Z,47.63
2017-07-24T06:16:27.255Z,47.75
2017-07-24T06:17:27.593Z,47.46
2017-07-24T06:18:27.623Z,47.56
2017-07-24T06:19:27.327Z,47.17
2017-07-24T06:20:27.668Z,47.36
2017-07-24T06:21:27.787Z,47.36
2017-07-24T06:22:27.828Z,47.85
2017-07-24T06:23:27.920Z,47.46
2017-07-24T06:24:27.761Z,47.36
2017-07-24T06:25:27.781Z,47.17
2017-07-24T06:26:27.804Z,47.17
2017-07-24T06:27:27.833Z,47.17
2017-07-24T06:28:27.848Z,46.98
2017-07-24T06:29:27.880Z,47.27
2017-07-24T06:30:27.896Z,47.27
2017-07-24T06:31:27.922Z,47.19
2017-07-24T06:32:27.948Z,47.17
2017-07-24T06:33:27.973Z,47.29
2017-07-24T06:34:27.992Z,46.81
2017-07-24T06:35:28.018Z,47.19
2017-07-24T06:36:27.726Z,47.29
2017-07-24T06:37:28.061Z,47.19
2017-07-24T06:38:28.091Z,47.29
2017-07-24T06:39:28.109Z,47.1
2017-07-24T06:40:28.133Z,47.39
2017-07-24T06:41:28.160Z,47.39
2017-07-24T06:42:27.871Z,47.29
2017-07-24T06:43:28.206Z,47.29
2017-07-24T06:44:28.226Z,47.03
2017-07-24T06:45:28.248Z,47.41
2017-07-24T06:46:28.278Z,47.19
2017-07-24T06:47:28.295Z,47.39
2017-07-24T06:48:28.366Z,47.31
2017-07-24T06:49:28.363Z,46.93
2017-07-24T06:50:28.382Z,46.93
2017-07-24T06:51:28.394Z,46.93
2017-07-24T06:52:28.413Z,47.12
2017-07-24T06:53:28.440Z,47.31
2017-07-24T06:54:28.542Z,47.12
2017-07-24T06:55:28.170Z,47.12
2017-07-24T06:56:28.514Z,46.83
2017-07-24T06:57:28.533Z,47.03
2017-07-24T06:58:28.554Z,46.56
2017-07-24T06:59:28.296Z,46.76
2017-07-24T07:00:28.606Z,46.76
2017-07-24T07:01:28.632Z,46.66
2017-07-24T07:02:28.652Z,46.28
2017-07-24T07:03:28.686Z,46.66
2017-07-24T07:04:28.384Z,46.56
2017-07-24T07:05:28.407Z,46.28
2017-07-24T07:06:28.748Z,46.28
2017-07-24T07:07:28.774Z,46.28
2017-07-24T07:08:28.551Z,46.01
2017-07-24T07:09:28.513Z,46.01
2017-07-24T07:10:28.529Z,46.11
2017-07-24T07:11:28.553Z,46.11
2017-07-24T07:12:28.892Z,46.01
2017-07-24T07:13:28.921Z,45.72
2017-07-24T07:14:28.631Z,45.62
2017-07-24T07:15:28.965Z,45.53
2017-07-24T07:16:28.674Z,45.72
2017-07-24T07:17:29.012Z,45.36
2017-07-24T07:18:29.237Z,45.24
2017-07-24T07:19:29.060Z,45.04
2017-07-24T07:20:29.088Z,45.17
2017-07-24T07:21:29.111Z,45.07
2017-07-24T07:22:29.145Z,44.97
2017-07-24T07:23:28.840Z,44.87
2017-07-24T07:24:29.186Z,44.68
2017-07-24T07:25:29.244Z,44.78
2017-07-24T07:26:29.234Z,44.59
2017-07-24T07:27:28.945Z,44.68
2017-07-24T07:28:29.338Z,44.49
2017-07-24T07:29:29.302Z,44.39
2017-07-24T07:30:29.326Z,44.29
2017-07-24T07:31:29.359Z,44.32
2017-07-24T07:32:29.382Z,44.12
2017-07-24T07:33:29.410Z,43.84
2017-07-24T07:34:29.428Z,43.84
2017-07-24T07:35:29.453Z,43.84
2017-07-24T07:36:29.479Z,43.84
2017-07-24T07:37:29.510Z,43.93
2017-07-24T07:38:29.535Z,44.03
2017-07-24T07:39:29.554Z,43.84
2017-07-24T07:40:29.268Z,43.74
2017-07-24T07:41:29.602Z,43.54
2017-07-24T07:42:29.629Z,43.84
2017-07-24T07:43:29.653Z,44.03
2017-07-24T07:44:29.359Z,43.66
2017-07-24T07:45:29.386Z,43.57
2017-07-24T07:46:29.726Z,42.99
2017-07-24T07:47:29.432Z,42.89
2017-07-24T07:48:29.460Z,42.89
2017-07-24T07:49:29.799Z,42.89
2017-07-24T07:50:29.821Z,42.6
2017-07-24T07:51:29.852Z,42.79
2017-07-24T07:52:29.871Z,42.6
2017-07-24T07:53:29.900Z,42.5
2017-07-24T07:54:29.923Z,42.43
2017-07-24T07:55:29.972Z,42.24
2017-07-24T07:56:29.656Z,42.21
2017-07-24T07:57:30.001Z,42.43
2017-07-24T07:58:30.025Z,42.24
2017-07-24T07:59:29.733Z,42.04
2017-07-24T08:00:30.074Z,41.85
2017-07-24T08:01:29.782Z,41.94
2017-07-24T08:02:30.132Z,41.56
2017-07-24T08:03:30.155Z,41.27
2017-07-24T08:04:29.861Z,41.46
2017-07-24T08:05:30.200Z,41.36
2017-07-24T08:06:29.907Z,41.36
2017-07-24T08:07:30.250Z,41.36
2017-07-24T08:08:30.271Z,41.27
2017-07-24T08:09:30.304Z,41.27
2017-07-24T08:10:30.325Z,41.29
2017-07-24T08:11:30.350Z,41.29
2017-07-24T08:12:30.381Z,41
2017-07-24T08:13:30.404Z,41
2017-07-24T08:14:30.423Z,41.09
2017-07-24T08:15:30.450Z,41.09
2017-07-24T08:16:30.162Z,41.09
2017-07-24T08:17:30.300Z,40.9
2017-07-24T08:18:30.526Z,41
2017-07-24T08:19:30.260Z,40.61
2017-07-24T08:20:30.600Z,40.81
2017-07-24T08:21:30.607Z,40.9
2017-07-24T08:22:30.630Z,40.81
2017-07-24T08:23:30.337Z,40.73
2017-07-24T08:24:30.679Z,40.63
2017-07-24T08:25:30.705Z,40.63
2017-07-24T08:26:30.731Z,40.81
2017-07-24T08:27:30.442Z,40.34
2017-07-24T08:28:30.467Z,40.25
2017-07-24T08:29:30.495Z,40.34
2017-07-24T08:30:30.833Z,40.25
2017-07-24T08:31:30.861Z,40.34
2017-07-24T08:32:30.993Z,40.34
2017-07-24T08:33:30.607Z,40.44
2017-07-24T08:34:30.946Z,40.15
2017-07-24T08:35:31.071Z,39.95
2017-07-24T08:36:30.997Z,40.25
2017-07-24T08:37:30.699Z,39.86
2017-07-24T08:38:30.724Z,39.86
2017-07-24T08:39:31.066Z,40.15
2017-07-24T08:40:30.778Z,39.76
2017-07-24T08:41:31.121Z,39.69
2017-07-24T08:42:30.828Z,39.29
2017-07-24T08:43:31.170Z,39.69
2017-07-24T08:44:31.195Z,39.39
2017-07-24T08:45:30.903Z,39.01
2017-07-24T08:46:31.251Z,38.91
2017-07-24T08:47:30.956Z,38.81
2017-07-24T08:48:31.394Z,38.53
2017-07-24T08:49:31.332Z,38.53
2017-07-24T08:50:31.041Z,38.64
2017-07-24T08:51:31.382Z,38.73
2017-07-24T08:52:31.105Z,38.45
2017-07-24T08:53:31.427Z,38.45
2017-07-24T08:54:31.454Z,38.45
2017-07-24T08:55:31.485Z,38.25
2017-07-24T08:56:31.507Z,37.59
2017-07-24T08:57:31.533Z,37.88
2017-07-24T08:58:31.556Z,38.15
2017-07-24T08:59:31.590Z,37.96
2017-07-24T09:00:31.301Z,38.07
2017-07-24T09:01:31.335Z,37.69
2017-07-24T09:02:31.350Z,37.49
2017-07-24T09:03:31.691Z,37.4
2017-07-24T09:04:31.402Z,37.11
2017-07-24T09:05:31.428Z,37.11
2017-07-24T09:06:31.453Z,37.11
2017-07-24T09:07:31.484Z,36.72
2017-07-24T09:08:31.506Z,36.72
2017-07-24T09:09:31.535Z,36.62
2017-07-24T09:10:31.563Z,36.54
2017-07-24T09:11:31.905Z,35.67
2017-07-24T09:12:31.618Z,35.77
2017-07-24T09:13:31.957Z,35.67
2017-07-24T09:14:31.981Z,35.77
2017-07-24T09:15:31.694Z,36.16
2017-07-24T09:16:31.719Z,35.77
2017-07-24T09:17:31.747Z,35.86
2017-07-24T09:18:31.773Z,35.48
2017-07-24T09:19:31.798Z,35.57
2017-07-24T09:20:31.829Z,35.48
2017-07-24T09:21:32.170Z,35.28
2017-07-24T09:22:31.882Z,35.28
2017-07-24T09:23:31.906Z,35.21
2017-07-24T09:24:31.944Z,35.11
2017-07-24T09:25:32.277Z,35.11
2017-07-24T09:26:32.303Z,34.72
2017-07-24T09:27:32.332Z,34.33
2017-07-24T09:28:32.580Z,34.53
2017-07-24T09:29:32.384Z,34.72
2017-07-24T09:30:32.412Z,34.33
2017-07-24T09:31:32.443Z,34.33
2017-07-24T09:32:32.596Z,34.33
2017-07-24T09:33:32.590Z,34.23
2017-07-24T09:34:32.706Z,34.35
2017-07-24T09:35:32.721Z,34.25
2017-07-24T09:36:32.572Z,34.83
2017-07-24T09:37:32.286Z,34.44
2017-07-24T09:38:32.627Z,34.25
2017-07-24T09:39:32.654Z,34.35
2017-07-24T09:40:32.681Z,33.96
2017-07-24T09:41:32.707Z,33.96
2017-07-24T09:42:32.737Z,33.69
2017-07-24T09:43:32.765Z,33.69
2017-07-24T09:44:32.791Z,33.39
2017-07-24T09:45:32.502Z,33.29
2017-07-24T09:46:32.849Z,33.29
2017-07-24T09:47:32.872Z,33.01
2017-07-24T09:48:33.034Z,32.92
2017-07-24T09:49:32.926Z,32.73
2017-07-24T09:50:33.049Z,32.54
2017-07-24T09:51:33.014Z,32.54
2017-07-24T09:52:33.010Z,31.85
2017-07-24T09:53:33.036Z,32.44
2017-07-24T09:54:33.170Z,32.07
2017-07-24T09:55:33.169Z,32.17
2017-07-24T09:56:33.116Z,31.97
2017-07-24T09:57:33.146Z,31.68
2017-07-24T09:58:33.173Z,31.77
2017-07-24T09:59:33.203Z,31.4
2017-07-24T10:00:33.229Z,31.11
2017-07-24T10:01:33.256Z,31.21
2017-07-24T10:02:33.405Z,31.21
2017-07-24T10:03:33.315Z,30.62
2017-07-24T10:04:33.339Z,31.01
2017-07-24T10:05:33.383Z,31.03
2017-07-24T10:06:33.404Z,30.54
2017-07-24T10:07:33.479Z,30.54
2017-07-24T10:08:33.450Z,30.83
2017-07-24T10:09:33.165Z,30.64
2017-07-24T10:10:33.535Z,30.25
2017-07-24T10:11:33.537Z,30.44
2017-07-24T10:12:33.562Z,30.25
2017-07-24T10:13:33.594Z,29.86
2017-07-24T10:14:33.622Z,30.05
2017-07-24T10:15:33.650Z,29.96
2017-07-24T10:16:33.676Z,30.07
2017-07-24T10:17:33.706Z,29.97
2017-07-24T10:18:33.747Z,30.07
2017-07-24T10:19:33.761Z,29.88
2017-07-24T10:20:33.791Z,30.07
2017-07-24T10:21:33.819Z,29.78
2017-07-24T10:22:33.529Z,29.97
2017-07-24T10:23:33.875Z,29.78
2017-07-24T10:24:34.184Z,29.39
2017-07-24T10:25:33.929Z,29.29
2017-07-24T10:26:33.976Z,29.19
2017-07-24T10:27:33.998Z,29.4
2017-07-24T10:28:34.144Z,29.3
2017-07-24T10:29:34.044Z,29.4
2017-07-24T10:30:34.111Z,29.02
2017-07-24T10:31:34.103Z,28.92
2017-07-24T10:32:34.151Z,29.02
2017-07-24T10:33:34.161Z,28.93
2017-07-24T10:34:34.191Z,28.74
2017-07-24T10:35:34.221Z,28.74
2017-07-24T10:36:34.249Z,28.93
2017-07-24T10:37:33.963Z,29.03
2017-07-24T10:38:33.995Z,29.03
2017-07-24T10:39:34.016Z,29.03
2017-07-24T10:40:34.044Z,28.64
2017-07-24T10:41:34.394Z,28.54
2017-07-24T10:42:34.428Z,28.45
2017-07-24T10:43:34.450Z,28.15
2017-07-24T10:44:34.480Z,28.05
2017-07-24T10:45:34.195Z,27.87
2017-07-24T10:46:34.539Z,28.26
2017-07-24T10:47:34.261Z,28.07
2017-07-24T10:48:34.280Z,27.68
2017-07-24T10:49:34.622Z,27.87
2017-07-24T10:50:34.431Z,27.97
2017-07-24T10:51:34.366Z,27.87
2017-07-24T10:52:34.712Z,27.89
2017-07-24T10:53:34.745Z,27.69
2017-07-24T10:54:34.770Z,27.89
2017-07-24T10:55:34.485Z,27.3
2017-07-24T10:56:34.830Z,27.3
2017-07-24T10:57:34.858Z,27.11
2017-07-24T10:58:34.889Z,27.4
2017-07-24T10:59:34.915Z,27.01
2017-07-24T11:00:34.950Z,27.4
2017-07-24T11:01:35.040Z,27.41
2017-07-24T11:02:35.010Z,27.11
2017-07-24T11:03:35.144Z,27.12
2017-07-24T11:04:35.068Z,27.12
2017-07-24T11:05:35.099Z,27.12
2017-07-24T11:06:35.126Z,27.22
2017-07-24T11:07:35.158Z,27.31
2017-07-24T11:08:35.184Z,26.53
2017-07-24T11:09:35.262Z,26.34
2017-07-24T11:10:35.253Z,26.43
2017-07-24T11:11:35.275Z,26.43
2017-07-24T11:12:35.304Z,27.12
2017-07-24T11:13:35.333Z,27.31
2017-07-24T11:14:35.361Z,27.22
2017-07-24T11:15:35.391Z,27.31
2017-07-24T11:16:35.422Z,27.2
2017-07-24T11:17:35.136Z,27.31
2017-07-24T11:18:35.481Z,27.01
2017-07-24T11:19:35.513Z,26.92
2017-07-24T11:20:35.540Z,26.42
2017-07-24T11:21:35.698Z,26.73
2017-07-24T11:22:35.610Z,26.81
2017-07-24T11:23:35.633Z,26.53
2017-07-24T11:24:35.660Z,26.53
2017-07-24T11:25:35.694Z,26.53
2017-07-24T11:26:35.719Z,26.91
2017-07-24T11:27:35.749Z,26.72
2017-07-24T11:28:35.780Z,26.72
2017-07-24T11:29:35.810Z,26.42
2017-07-24T11:30:35.525Z,26.13
2017-07-24T11:31:35.555Z,26.32
2017-07-24T11:32:35.586Z,26.23
2017-07-24T11:33:35.615Z,26.32
2017-07-24T11:34:35.959Z,26.52
2017-07-24T11:35:35.993Z,26.62
2017-07-24T11:36:36.019Z,26.12
2017-07-24T11:37:36.051Z,26.61
2017-07-24T11:38:36.090Z,26.31
2017-07-24T11:39:36.116Z,26.12
2017-07-24T11:40:35.941Z,26.61
2017-07-24T11:41:36.266Z,26.51
2017-07-24T11:42:36.434Z,26.61
2017-07-24T11:43:36.432Z,26.21
2017-07-24T11:44:36.441Z,26.31
2017-07-24T11:45:36.289Z,26.31
2017-07-24T11:46:36.009Z,26.61
2017-07-24T11:47:36.345Z,26.61
2017-07-24T11:48:36.377Z,26.8
2017-07-24T11:49:36.412Z,26.51
2017-07-24T11:50:36.437Z,26.5
2017-07-24T11:51:36.474Z,26.89
2017-07-24T11:52:36.498Z,26.5
2017-07-24T11:53:36.215Z,26.51
2017-07-24T11:54:36.693Z,26.7
2017-07-24T11:55:36.589Z,26.8
2017-07-24T11:56:36.620Z,26.61
2017-07-24T11:57:36.646Z,26.31
2017-07-24T11:58:36.678Z,26.21
2017-07-24T11:59:36.755Z,26.41
2017-07-24T12:00:36.424Z,26.32
2017-07-24T12:01:36.769Z,25.93
2017-07-24T12:02:36.799Z,26.32
2017-07-24T12:03:36.859Z,26.32
2017-07-24T12:04:36.548Z,26.03
2017-07-24T12:05:36.990Z,25.84
2017-07-24T12:06:37.024Z,25.93
2017-07-24T12:07:37.024Z,25.93
2017-07-24T12:08:37.023Z,25.25
2017-07-24T12:09:36.785Z,25.35
2017-07-24T12:10:37.040Z,25.56
2017-07-24T12:11:37.070Z,25.36
2017-07-24T12:12:37.098Z,25.36
2017-07-24T12:13:37.130Z,25.36
2017-07-24T12:14:37.169Z,25.26
2017-07-24T12:15:36.874Z,25.26
2017-07-24T12:16:37.219Z,25.16
2017-07-24T12:17:37.251Z,25.07
2017-07-24T12:18:36.965Z,25.56
2017-07-24T12:19:36.998Z,25.36
2017-07-24T12:20:37.345Z,25.46
2017-07-24T12:21:37.373Z,25.26
2017-07-24T12:22:37.401Z,25.26
2017-07-24T12:23:37.433Z,25.26
2017-07-24T12:24:37.586Z,25.16
2017-07-24T12:25:37.562Z,25.16
2017-07-24T12:26:37.523Z,25.46
2017-07-24T12:27:37.555Z,25.35
2017-07-24T12:28:37.587Z,25.05
2017-07-24T12:29:37.615Z,25.45
2017-07-24T12:30:37.648Z,25.25
2017-07-24T12:31:37.684Z,25.45
2017-07-24T12:32:37.709Z,25.84
2017-07-24T12:33:37.740Z,25.74
2017-07-24T12:34:37.768Z,25.82
2017-07-24T12:35:37.982Z,26.02
2017-07-24T12:36:37.830Z,26.02
2017-07-24T12:37:37.859Z,25.73
2017-07-24T12:38:37.887Z,25.73
2017-07-24T12:39:37.919Z,25.92
2017-07-24T12:40:37.952Z,25.92
2017-07-24T12:41:38.020Z,26.02
2017-07-24T12:42:38.010Z,25.82
2017-07-24T12:43:38.053Z,26.2
2017-07-24T12:44:37.756Z,26.2
2017-07-24T12:45:38.100Z,26.3
2017-07-24T12:46:38.135Z,26.3
2017-07-24T12:47:38.161Z,26.59
2017-07-24T12:48:38.190Z,26.79
2017-07-24T12:49:38.222Z,26.5
2017-07-24T12:50:38.258Z,26.58
2017-07-24T12:51:38.278Z,26.68
2017-07-24T12:52:37.994Z,26.58
2017-07-24T12:53:38.342Z,26.48
2017-07-24T12:54:38.370Z,26.39
2017-07-24T12:55:38.406Z,26.39